New Vibes — FAA9849 — position and weather

sailwx.info

Track history (hours):
 
Tides and Currents Weather Stations Pressure Air Temp Water Temp Dewpoint Dewpoint Depression Visibility Wind Speed Wind Dir Waves Ship Positions

New Vibes

Last reported at 2018-Jun-22 14:55 UTC. Time now 2018-Jun-22 16:38 UTC.
Position N 47°44' W 003°21'.

Length 12 m.

Type: Sailing vessel. MMSI: 227176580.

Date/timePositionNaut miles runAvg speedWind from/ knotsBaromVisibWave heightAir tempDewpointWater temp
2018-Jun-22 14:55N 47°44' W 003°21'0 0.9
2018-Jun-22 14:30N 47°43' W 003°21'2 4.6
2018-Jun-22 14:00N 47°41' W 003°23'2 3.8
2018-Jun-22 13:30N 47°40' W 003°25'  
2018-Jun-18 11:04N 47°39' W 003°27'0 2.7
2018-Jun-18 11:00N 47°39' W 003°27'3 5.3
2018-Jun-18 10:30N 47°41' W 003°24'3 5.3
2018-Jun-18 09:59N 47°43' W 003°22'0 0.1
2018-Jun-18 09:29N 47°43' W 003°22'0 0.0
2018-Jun-18 08:59N 47°43' W 003°22'0 0.0
2018-Jun-18 08:29N 47°43' W 003°22'0 0.0
2018-Jun-18 07:59N 47°43' W 003°22'0 0.0
2018-Jun-18 07:29N 47°43' W 003°22'0 0.0
2018-Jun-18 06:59N 47°43' W 003°22'0 0.0
2018-Jun-18 06:29N 47°43' W 003°22'0 0.0
2018-Jun-18 05:59N 47°43' W 003°22'0 0.0
2018-Jun-18 05:29N 47°43' W 003°22'0 0.0
2018-Jun-18 04:59N 47°43' W 003°22'0 0.0
2018-Jun-18 04:29N 47°43' W 003°22'0 0.0
2018-Jun-18 03:59N 47°43' W 003°22'0 0.0
2018-Jun-18 03:29N 47°43' W 003°22'0 0.0
2018-Jun-18 02:59N 47°43' W 003°22'0 0.0
2018-Jun-18 02:29N 47°43' W 003°22'0 0.0
2018-Jun-18 01:59N 47°43' W 003°22'0 0.0
2018-Jun-18 01:29N 47°43' W 003°22'0 0.0
2018-Jun-18 00:59N 47°43' W 003°22'0 0.0
2018-Jun-18 00:29N 47°43' W 003°22'0 0.0
2018-Jun-17 23:59N 47°43' W 003°22'0 0.0
2018-Jun-17 23:29N 47°43' W 003°22'0 0.0
2018-Jun-17 22:59N 47°43' W 003°22'0 0.0
2018-Jun-17 22:29N 47°43' W 003°22'0 0.0
2018-Jun-17 21:59N 47°43' W 003°22'0 0.0
2018-Jun-17 21:29N 47°43' W 003°22'0 0.0
2018-Jun-17 20:59N 47°43' W 003°22'0 0.0
2018-Jun-17 20:29N 47°43' W 003°22'0 0.0
2018-Jun-17 19:59N 47°43' W 003°22'0 0.0
2018-Jun-17 19:29N 47°43' W 003°22'0 0.0
2018-Jun-17 18:59N 47°43' W 003°22'0 0.0
2018-Jun-17 18:29N 47°43' W 003°22'0 0.0
2018-Jun-17 17:59N 47°43' W 003°22'0 0.0
2018-Jun-17 17:29N 47°43' W 003°22'0 0.0
2018-Jun-17 16:59N 47°43' W 003°22'0 0.0
2018-Jun-17 16:29N 47°43' W 003°22'0 0.0
2018-Jun-17 15:59N 47°43' W 003°22'0 0.0
2018-Jun-17 15:29N 47°43' W 003°22'1 2.0
2018-Jun-17 15:00N 47°42' W 003°22'8 5.8
2018-Jun-17 13:32N 47°34' W 003°20'0 8.0
2018-Jun-17 13:30N 47°34' W 003°20'  
2018-Jun-15 08:40N 47°32' W 003°00'1 1.8
2018-Jun-15 08:22N 47°33' W 003°00'3 0.2
2018-Jun-14 17:59N 47°33' W 002°55'2 4.4
2018-Jun-14 17:27N 47°34' W 002°52'2 4.2
2018-Jun-14 16:58N 47°34' W 002°49'1 2.8
2018-Jun-14 16:28N 47°36' W 002°49'0 0.0
2018-Jun-14 15:50N 47°36' W 002°49'0 0.0
2018-Jun-14 15:20N 47°36' W 002°49'0 0.0
2018-Jun-14 15:00N 47°36' W 002°49'1 2.6
2018-Jun-14 14:30N 47°36' W 002°51'7 3.7
2018-Jun-14 12:35N 47°34' W 003°01'  
Track history (hours):
 
Tides and Currents Weather Stations Pressure Air Temp Water Temp Dewpoint Dewpoint Depression Visibility Wind Speed Wind Dir Waves Ship Positions

New Vibes

Last reported at 2018-Jun-22 14:55 UTC. Time now 2018-Jun-22 16:38 UTC.
Position N 47°44' W 003°21'.

Length 12 m.

Type: Sailing vessel. MMSI: 227176580.

Date/timePositionNaut miles runAvg speedWind from/ knotsBaromVisibWave heightAir tempDewpointWater temp
2018-Jun-22 14:55N 47°44' W 003°21'0 0.9
2018-Jun-22 14:30N 47°43' W 003°21'2 4.6
2018-Jun-22 14:00N 47°41' W 003°23'2 3.8
2018-Jun-22 13:30N 47°40' W 003°25'  
2018-Jun-18 11:04N 47°39' W 003°27'0 2.7
2018-Jun-18 11:00N 47°39' W 003°27'3 5.3
2018-Jun-18 10:30N 47°41' W 003°24'3 5.3
2018-Jun-18 09:59N 47°43' W 003°22'0 0.1
2018-Jun-18 09:29N 47°43' W 003°22'0 0.0
2018-Jun-18 08:59N 47°43' W 003°22'0 0.0
2018-Jun-18 08:29N 47°43' W 003°22'0 0.0
2018-Jun-18 07:59N 47°43' W 003°22'0 0.0
2018-Jun-18 07:29N 47°43' W 003°22'0 0.0
2018-Jun-18 06:59N 47°43' W 003°22'0 0.0
2018-Jun-18 06:29N 47°43' W 003°22'0 0.0
2018-Jun-18 05:59N 47°43' W 003°22'0 0.0
2018-Jun-18 05:29N 47°43' W 003°22'0 0.0
2018-Jun-18 04:59N 47°43' W 003°22'0 0.0
2018-Jun-18 04:29N 47°43' W 003°22'0 0.0
2018-Jun-18 03:59N 47°43' W 003°22'0 0.0
2018-Jun-18 03:29N 47°43' W 003°22'0 0.0
2018-Jun-18 02:59N 47°43' W 003°22'0 0.0
2018-Jun-18 02:29N 47°43' W 003°22'0 0.0
2018-Jun-18 01:59N 47°43' W 003°22'0 0.0
2018-Jun-18 01:29N 47°43' W 003°22'0 0.0
2018-Jun-18 00:59N 47°43' W 003°22'0 0.0
2018-Jun-18 00:29N 47°43' W 003°22'0 0.0
2018-Jun-17 23:59N 47°43' W 003°22'0 0.0
2018-Jun-17 23:29N 47°43' W 003°22'0 0.0
2018-Jun-17 22:59N 47°43' W 003°22'0 0.0
2018-Jun-17 22:29N 47°43' W 003°22'0 0.0
2018-Jun-17 21:59N 47°43' W 003°22'0 0.0
2018-Jun-17 21:29N 47°43' W 003°22'0 0.0
2018-Jun-17 20:59N 47°43' W 003°22'0 0.0
2018-Jun-17 20:29N 47°43' W 003°22'0 0.0
2018-Jun-17 19:59N 47°43' W 003°22'0 0.0
2018-Jun-17 19:29N 47°43' W 003°22'0 0.0
2018-Jun-17 18:59N 47°43' W 003°22'0 0.0
2018-Jun-17 18:29N 47°43' W 003°22'0 0.0
2018-Jun-17 17:59N 47°43' W 003°22'0 0.0
2018-Jun-17 17:29N 47°43' W 003°22'0 0.0
2018-Jun-17 16:59N 47°43' W 003°22'0 0.0
2018-Jun-17 16:29N 47°43' W 003°22'0 0.0
2018-Jun-17 15:59N 47°43' W 003°22'0 0.0
2018-Jun-17 15:29N 47°43' W 003°22'1 2.0
2018-Jun-17 15:00N 47°42' W 003°22'8 5.8
2018-Jun-17 13:32N 47°34' W 003°20'0 8.0
2018-Jun-17 13:30N 47°34' W 003°20'  
2018-Jun-15 08:40N 47°32' W 003°00'1 1.8
2018-Jun-15 08:22N 47°33' W 003°00'3 0.2
2018-Jun-14 17:59N 47°33' W 002°55'2 4.4
2018-Jun-14 17:27N 47°34' W 002°52'2 4.2
2018-Jun-14 16:58N 47°34' W 002°49'1 2.8
2018-Jun-14 16:28N 47°36' W 002°49'0 0.0
2018-Jun-14 15:50N 47°36' W 002°49'0 0.0
2018-Jun-14 15:20N 47°36' W 002°49'0 0.0
2018-Jun-14 15:00N 47°36' W 002°49'1 2.6
2018-Jun-14 14:30N 47°36' W 002°51'7 3.7
2018-Jun-14 12:35N 47°34' W 003°01'  

Dump ship's entire track history